Hadlyme, CT (06439)

6:00 PM EDT on August 21, 2014 (GMT -0400)
Hadlyme | Change Station
CLOSE
Current Station
Personal Weather Station
Location: East Haddam, CT
Elevation: 312 ft
Nearby Weather Stations

Elev 312 ft 41.44 °N, 72.38 °W | Updated 20 seconds ago

Mostly Cloudy
Mostly Cloudy
73.6 °F
Feels Like 75 °F
N
0.0
Wind Variable Wind from WNW
Gusts 1.0 mph

Today
High -- | Low -- °F
--% Chance of Precip.
Yesterday
High -- | Low -- °F
Precip. -- in
6:04 AM 7:40 PM
Waning Crescent, 12% visible
Pressure 30.06 in
Visibility 10.0 miles
Clouds Mostly Cloudy 1700 ft
Mostly Cloudy 6000 ft
Heat Index 75 °F
Dew Point 64 °F
Humidity 73%
Rainfall 0.00 in
Snow Depth Not available.
UV 1 out of 12
Pollen 8.00 out of 12
Air Quality Not available.
Flu Activity Not available.
METAR KSNC 212135Z AUTO 15006KT 10SM BKN017 BKN060 22/18 A3006 RMK AO2

More Conditions Fewer Conditions

Pressure 30.06 in
Visibility 10.0 miles
Clouds Mostly Cloudy 1700 ft
Mostly Cloudy 6000 ft
Heat Index 75 °F
Dew Point 64 °F
Humidity 73%
Rainfall 0.00 in
Snow Depth Not available.
UV 1 out of 12
Pollen 8.00 out of 12
Air Quality Not available.
Flu Activity Not available.
METAR KSNC 212135Z AUTO 15006KT 10SM BKN017 BKN060 22/18 A3006 RMK AO2

More Conditions Fewer Conditions

10-Day Weather Forecast

Almanac

Astronomy

Aug. 21, 2014 Rise Set
Actual Time 6:04 AM EDT 7:40 PM EDT
Civil Twilight 5:35 AM EDT 8:09 PM EDT
Nautical Twilight 5:00 AM EDT 8:44 PM EDT
Astronomical Twilight 4:22 AM EDT 9:21 PM EDT
Moon 2:31 AM EDT 5:07 PM EDT
Length of Visible Light 14h 33m
Length of Day
13h 35m
Tomorrow will be 2m 33s shorter.
Waning Crescent, 12% of the Moon is Illuminated
Today
Waning Crescent
Aug 25
New
Sep 2
First Quarter
Sep 8
Full
Sep 15
Last Quarter

Today's Extremes

State Highs State Lows

Community

WunderPhotos

Upload Photos

1,746,033 photos uploaded!

WunderBlogs® & News

Nearby

Air Quality

  Air Quality AQ Index Pollutant
Thursday Good
OZONE
Thursday Good
PM2.5
Friday Good
OZONE
Friday Good
PM2.5

Snow Depth

Station Depth Elevation
No new snow has been reported.

Earthquake Activity

City Distance Mag. Time & Date
No recent earthquake activity has been reported nearby.
Minimum magnitude displayed is 2.5.

Coastal Water Temperatures

Place Temperature
New London, CT 69.1 °F
Newport, RI 70.0 °F
Quonset Point, RI 73.9 °F
Conimicut Light, RI 71.1 °F
Providence, RI 73.0 °F

Nearby Weather Stations